createdAt,value
2022-11-29T00:05:09.476Z,101214.53
2022-11-29T00:15:10.739Z,101214.75
2022-11-29T00:25:11.985Z,101223.22
2022-11-29T00:35:13.272Z,101232.13
2022-11-29T00:45:14.567Z,101230.31
2022-11-29T00:55:15.855Z,101222.50
2022-11-29T01:05:17.126Z,101225.94
2022-11-29T01:15:18.423Z,101236.38
2022-11-29T01:25:19.736Z,101233.75
2022-11-29T01:35:21.013Z,101247.84
2022-11-29T01:45:22.285Z,101257.47
2022-11-29T01:55:23.534Z,101260.88
2022-11-29T02:05:25.091Z,101285.34
2022-11-29T02:15:26.351Z,101296.59
2022-11-29T02:25:27.602Z,101293.13
2022-11-29T02:35:28.872Z,101296.47
2022-11-29T02:45:30.135Z,101286.19
2022-11-29T02:55:31.437Z,101299.88
2022-11-29T03:05:32.755Z,101307.44
2022-11-29T03:15:34.196Z,101316.97
2022-11-29T03:25:35.492Z,101324.81
2022-11-29T03:35:36.776Z,101332.44
2022-11-29T03:45:38.004Z,101341.22
2022-11-29T03:55:39.244Z,101348.88
2022-11-29T04:05:40.528Z,101355.78
2022-11-29T04:15:41.831Z,101379.38
2022-11-29T04:25:43.172Z,101367.03
2022-11-29T04:35:44.428Z,101377.41
2022-11-29T04:45:46.887Z,101380.03
2022-11-29T04:55:48.138Z,101383.47
2022-11-29T05:05:49.401Z,101395.59
2022-11-29T05:15:50.669Z,101415.09
2022-11-29T05:25:52.025Z,101434.91
2022-11-29T05:35:53.285Z,101443.25
2022-11-29T05:45:54.505Z,101452.81
2022-11-29T05:55:55.783Z,101466.75
2022-11-29T06:05:57.046Z,101465.94
2022-11-29T06:15:58.509Z,101494.34
2022-11-29T06:26:03.899Z,101497.66
2022-11-29T06:36:05.585Z,101514.00
2022-11-29T06:46:06.813Z,101539.06
2022-11-29T06:56:08.191Z,101544.34
2022-11-29T07:06:09.585Z,101549.59
2022-11-29T07:16:11.015Z,101560.91
2022-11-29T07:26:12.485Z,101570.66
2022-11-29T07:36:13.806Z,101581.84
2022-11-29T07:46:15.215Z,101594.09
2022-11-29T07:56:16.503Z,101602.91
2022-11-29T08:06:17.895Z,101602.75
2022-11-29T08:16:19.350Z,101606.25
2022-11-29T08:26:20.740Z,101611.53
2022-11-29T08:36:22.174Z,101626.44
2022-11-29T08:46:23.512Z,101627.19
2022-11-29T08:57:10.180Z,101638.63
2022-11-29T09:06:46.345Z,101642.94
2022-11-29T09:16:47.781Z,101655.25
2022-11-29T09:26:49.165Z,101667.44
2022-11-29T09:36:50.534Z,101673.34
2022-11-29T09:46:57.223Z,101697.06
2022-11-29T09:57:00.054Z,101697.19
2022-11-29T10:07:01.443Z,101704.88
2022-11-29T10:17:02.797Z,101702.34
2022-11-29T10:27:04.042Z,101700.56
2022-11-29T10:37:05.534Z,101697.88
2022-11-29T10:47:10.940Z,101707.50
2022-11-29T10:57:12.634Z,101702.53
2022-11-29T11:07:13.902Z,101704.34
2022-11-29T11:17:15.293Z,101703.56
2022-11-29T11:27:16.659Z,101706.16
2022-11-29T11:37:17.921Z,101710.84
2022-11-29T11:47:19.322Z,101725.63
2022-11-29T11:57:20.669Z,101732.59
2022-11-29T12:07:38.758Z,101750.81
2022-11-29T12:17:43.427Z,101754.03
2022-11-29T12:27:44.888Z,101749.63
2022-11-29T12:37:46.318Z,101773.25
2022-11-29T12:47:51.851Z,101788.94
2022-11-29T12:57:53.755Z,101787.41
2022-11-29T13:07:55.145Z,101785.50
2022-11-29T13:28:25.264Z,101796.13
2022-11-29T13:38:26.828Z,101797.72
2022-11-29T13:48:35.085Z,101800.31
2022-11-29T13:58:43.180Z,101809.13
2022-11-29T14:19:12.403Z,101808.25
2022-11-29T14:29:14.004Z,101818.88
2022-11-29T14:39:15.378Z,101818.88
2022-11-29T14:59:40.600Z,101827.63
2022-11-29T15:09:42.620Z,101833.09
2022-11-29T15:19:47.479Z,101842.84
2022-11-29T15:29:48.908Z,101839.38
2022-11-29T15:39:50.302Z,101846.53
2022-11-29T15:49:51.705Z,101849.19
2022-11-29T15:59:53.133Z,101846.56
2022-11-29T16:09:54.475Z,101853.63
2022-11-29T16:19:55.752Z,101858.88
2022-11-29T16:29:57.122Z,101861.50
2022-11-29T16:39:58.370Z,101865.09
2022-11-29T16:49:59.956Z,101879.00
2022-11-29T17:00:02.285Z,101885.16
2022-11-29T17:10:03.566Z,101882.56
2022-11-29T17:20:05.014Z,101886.97
2022-11-29T17:30:06.364Z,101888.69
2022-11-29T17:50:36.423Z,101898.47
2022-11-29T18:00:37.648Z,101901.00
2022-11-29T18:10:38.892Z,101911.53
2022-11-29T18:20:40.175Z,101912.53
2022-11-29T18:30:41.641Z,101926.50
2022-11-29T18:40:43.098Z,101932.53
2022-11-29T18:50:44.351Z,101933.53
2022-11-29T19:00:45.621Z,101939.56
2022-11-29T19:10:47.108Z,101952.59
2022-11-29T19:20:48.431Z,101962.31
2022-11-29T19:30:49.892Z,101959.72
2022-11-29T19:40:51.240Z,101966.59
2022-11-29T19:50:52.508Z,101970.19
2022-11-29T20:00:53.792Z,101967.56
2022-11-29T20:10:55.081Z,101975.44
2022-11-29T20:20:56.482Z,101985.84
2022-11-29T20:41:26.681Z,101992.00
2022-11-29T20:51:28.047Z,101995.56
2022-11-29T21:01:29.467Z,101998.97
2022-11-29T21:11:30.770Z,102007.72
2022-11-29T21:21:32.081Z,102011.00
2022-11-29T21:31:33.450Z,102012.94
2022-11-29T21:41:34.845Z,102015.53
2022-11-29T21:51:36.215Z,102009.50
2022-11-29T22:01:37.617Z,102018.28
2022-11-29T22:11:39.150Z,102018.16
2022-11-29T22:21:40.516Z,102018.25
2022-11-29T22:31:41.820Z,102016.53
2022-11-29T22:41:43.155Z,102012.19
2022-11-29T22:51:44.571Z,102013.06
2022-11-29T23:01:46.005Z,102033.00
2022-11-29T23:11:47.316Z,102029.59
2022-11-29T23:21:48.701Z,102042.72
2022-11-29T23:31:50.024Z,102044.41
2022-11-29T23:41:51.386Z,102040.88
2022-11-29T23:51:52.654Z,102038.41
